sensor_id;sensor_type;location;lat;lon;timestamp;pressure;altitude;pressure_sealevel;temperature;humidity
16431;BME280;8325;49.284;7.238;2024-01-30T05:03:19;100040.34;;;0.65;100.00
16431;BME280;8325;49.284;7.238;2024-01-30T05:07:31;100044.22;;;0.74;100.00
16431;BME280;8325;49.284;7.238;2024-01-30T05:11:43;100049.34;;;0.74;100.00
16431;BME280;8325;49.284;7.238;2024-01-30T05:15:54;100047.38;;;0.79;100.00
16431;BME280;8325;49.284;7.238;2024-01-30T05:20:06;100053.34;;;0.80;100.00
16431;BME280;8325;49.284;7.238;2024-01-30T05:24:18;100049.72;;;0.84;100.00
16431;BME280;8325;49.284;7.238;2024-01-30T05:28:32;100050.56;;;0.84;100.00
16431;BME280;8325;49.284;7.238;2024-01-30T05:32:44;100043.59;;;0.86;100.00
16431;BME280;8325;49.284;7.238;2024-01-30T05:36:55;100049.72;;;0.84;100.00
16431;BME280;8325;49.284;7.238;2024-01-30T05:41:08;100039.13;;;0.90;100.00
16431;BME280;8325;49.284;7.238;2024-01-30T05:45:19;100037.28;;;0.92;100.00
16431;BME280;8325;49.284;7.238;2024-01-30T05:49:31;100036.72;;;0.87;100.00
16431;BME280;8325;49.284;7.238;2024-01-30T05:53:43;100038.31;;;0.89;100.00
16431;BME280;8325;49.284;7.238;2024-01-30T05:57:54;100034.97;;;0.87;100.00
16431;BME280;8325;49.284;7.238;2024-01-30T06:02:07;100045.25;;;0.87;100.00
16431;BME280;8325;49.284;7.238;2024-01-30T06:06:19;100038.97;;;0.93;100.00
16431;BME280;8325;49.284;7.238;2024-01-30T06:10:30;100037.44;;;0.89;100.00
16431;BME280;8325;49.284;7.238;2024-01-30T06:14:42;100039.81;;;0.94;100.00
16431;BME280;8325;49.284;7.238;2024-01-30T06:18:57;100044.28;;;0.90;100.00
16431;BME280;8325;49.284;7.238;2024-01-30T06:23:09;100042.00;;;0.84;100.00
16431;BME280;8325;49.284;7.238;2024-01-30T06:27:21;100048.81;;;0.85;100.00
16431;BME280;8325;49.284;7.238;2024-01-30T06:31:33;100044.72;;;0.81;100.00
16431;BME280;8325;49.284;7.238;2024-01-30T06:35:44;100043.81;;;0.82;100.00
16431;BME280;8325;49.284;7.238;2024-01-30T06:39:57;100050.69;;;0.81;100.00
16431;BME280;8325;49.284;7.238;2024-01-30T06:44:08;100042.75;;;0.86;100.00
16431;BME280;8325;49.284;7.238;2024-01-30T06:48:20;100053.50;;;0.94;100.00
16431;BME280;8325;49.284;7.238;2024-01-30T06:52:32;100043.97;;;0.96;100.00
16431;BME280;8325;49.284;7.238;2024-01-30T06:56:43;100046.59;;;0.95;100.00
16431;BME280;8325;49.284;7.238;2024-01-30T07:00:56;100046.81;;;1.07;100.00
16431;BME280;8325;49.284;7.238;2024-01-30T07:05:07;100049.25;;;1.10;100.00
16431;BME280;8325;49.284;7.238;2024-01-30T07:09:19;100054.31;;;1.12;100.00
16431;BME280;8325;49.284;7.238;2024-01-30T07:13:31;100050.84;;;1.13;100.00
16431;BME280;8325;49.284;7.238;2024-01-30T07:17:43;100062.56;;;1.19;100.00
16431;BME280;8325;49.284;7.238;2024-01-30T07:21:55;100063.19;;;1.24;100.00
16431;BME280;8325;49.284;7.238;2024-01-30T07:26:07;100067.34;;;1.26;100.00
16431;BME280;8325;49.284;7.238;2024-01-30T07:30:19;100069.50;;;1.34;100.00
16431;BME280;8325;49.284;7.238;2024-01-30T07:34:31;100072.09;;;1.34;100.00
16431;BME280;8325;49.284;7.238;2024-01-30T07:38:49;100072.38;;;1.45;100.00
16431;BME280;8325;49.284;7.238;2024-01-30T07:43:01;100082.88;;;1.58;100.00
16431;BME280;8325;49.284;7.238;2024-01-30T07:47:14;100084.06;;;1.68;100.00
16431;BME280;8325;49.284;7.238;2024-01-30T07:51:26;100082.66;;;1.78;100.00
16431;BME280;8325;49.284;7.238;2024-01-30T07:55:39;100082.69;;;1.94;100.00
16431;BME280;8325;49.284;7.238;2024-01-30T07:59:51;100084.63;;;2.06;100.00
16431;BME280;8325;49.284;7.238;2024-01-30T08:04:02;100089.78;;;2.38;100.00
16431;BME280;8325;49.284;7.238;2024-01-30T08:08:14;100087.13;;;2.70;100.00
16431;BME280;8325;49.284;7.238;2024-01-30T08:12:26;100082.63;;;3.04;100.00
16431;BME280;8325;49.284;7.238;2024-01-30T08:16:37;100075.50;;;3.37;100.00
16431;BME280;8325;49.284;7.238;2024-01-30T08:20:49;100085.13;;;3.64;100.00
16431;BME280;8325;49.284;7.238;2024-01-30T08:25:00;100089.19;;;3.82;100.00
16431;BME280;8325;49.284;7.238;2024-01-30T08:29:12;100088.13;;;3.99;100.00
16431;BME280;8325;49.284;7.238;2024-01-30T08:33:24;100082.47;;;4.21;100.00
16431;BME280;8325;49.284;7.238;2024-01-30T08:37:35;100092.75;;;4.50;100.00
16431;BME280;8325;49.284;7.238;2024-01-30T08:41:47;100085.25;;;4.72;100.00
16431;BME280;8325;49.284;7.238;2024-01-30T08:45:59;100078.78;;;4.92;100.00
16431;BME280;8325;49.284;7.238;2024-01-30T08:50:11;100081.94;;;5.10;100.00
16431;BME280;8325;49.284;7.238;2024-01-30T08:54:23;100081.53;;;5.29;100.00
16431;BME280;8325;49.284;7.238;2024-01-30T08:58:35;100085.25;;;5.50;100.00
16431;BME280;8325;49.284;7.238;2024-01-30T09:02:47;100081.00;;;5.62;100.00
16431;BME280;8325;49.284;7.238;2024-01-30T09:06:58;100075.91;;;5.86;100.00
16431;BME280;8325;49.284;7.238;2024-01-30T09:11:14;100086.06;;;5.89;100.00
16431;BME280;8325;49.284;7.238;2024-01-30T09:15:26;100085.94;;;5.91;100.00
16431;BME280;8325;49.284;7.238;2024-01-30T09:19:38;100087.94;;;6.00;100.00
16431;BME280;8325;49.284;7.238;2024-01-30T09:23:51;100093.81;;;6.15;100.00
16431;BME280;8325;49.284;7.238;2024-01-30T09:28:04;100091.59;;;6.34;100.00
16431;BME280;8325;49.284;7.238;2024-01-30T09:32:15;100097.94;;;6.54;100.00
16431;BME280;8325;49.284;7.238;2024-01-30T09:36:27;100103.19;;;6.65;100.00
16431;BME280;8325;49.284;7.238;2024-01-30T09:40:39;100100.63;;;6.77;100.00
16431;BME280;8325;49.284;7.238;2024-01-30T09:44:51;100105.97;;;6.86;100.00
16431;BME280;8325;49.284;7.238;2024-01-30T09:49:03;100117.47;;;6.95;100.00
16431;BME280;8325;49.284;7.238;2024-01-30T09:53:16;100125.31;;;7.06;100.00
16431;BME280;8325;49.284;7.238;2024-01-30T09:57:28;100127.56;;;7.11;100.00
16431;BME280;8325;49.284;7.238;2024-01-30T10:01:40;100131.25;;;7.08;100.00
16431;BME280;8325;49.284;7.238;2024-01-30T10:05:54;100142.94;;;7.14;100.00
16431;BME280;8325;49.284;7.238;2024-01-30T10:10:07;100147.91;;;7.17;100.00
16431;BME280;8325;49.284;7.238;2024-01-30T10:14:19;100153.00;;;7.19;100.00
16431;BME280;8325;49.284;7.238;2024-01-30T10:18:30;100134.09;;;7.17;100.00
16431;BME280;8325;49.284;7.238;2024-01-30T10:22:42;100132.94;;;7.21;100.00
16431;BME280;8325;49.284;7.238;2024-01-30T10:26:55;100121.47;;;7.23;100.00
16431;BME280;8325;49.284;7.238;2024-01-30T10:31:07;100125.38;;;7.29;100.00
16431;BME280;8325;49.284;7.238;2024-01-30T10:35:19;100119.72;;;7.35;100.00
16431;BME280;8325;49.284;7.238;2024-01-30T10:39:31;100114.06;;;7.41;100.00
16431;BME280;8325;49.284;7.238;2024-01-30T10:43:50;100108.41;;;7.47;100.00
16431;BME280;8325;49.284;7.238;2024-01-30T10:48:07;100113.41;;;7.61;100.00
16431;BME280;8325;49.284;7.238;2024-01-30T10:52:23;100114.56;;;7.69;100.00
16431;BME280;8325;49.284;7.238;2024-01-30T10:56:38;100118.00;;;7.80;100.00
16431;BME280;8325;49.284;7.238;2024-01-30T11:00:50;100124.97;;;7.91;100.00
16431;BME280;8325;49.284;7.238;2024-01-30T11:05:04;100121.81;;;7.99;100.00
16431;BME280;8325;49.284;7.238;2024-01-30T11:09:17;100120.50;;;8.04;100.00
16431;BME280;8325;49.284;7.238;2024-01-30T11:13:29;100107.84;;;8.11;100.00
16431;BME280;8325;49.284;7.238;2024-01-30T11:22:01;100110.44;;;8.22;100.00
16431;BME280;8325;49.284;7.238;2024-01-30T11:26:13;100106.06;;;8.23;100.00
16431;BME280;8325;49.284;7.238;2024-01-30T11:30:31;100094.91;;;8.32;100.00
16431;BME280;8325;49.284;7.238;2024-01-30T11:34:43;100108.06;;;8.42;100.00
16431;BME280;8325;49.284;7.238;2024-01-30T11:38:55;100109.91;;;8.51;100.00
16431;BME280;8325;49.284;7.238;2024-01-30T11:43:08;100104.81;;;8.61;100.00
16431;BME280;8325;49.284;7.238;2024-01-30T11:47:22;100092.56;;;8.72;100.00
16431;BME280;8325;49.284;7.238;2024-01-30T11:51:34;100100.34;;;8.84;100.00
16431;BME280;8325;49.284;7.238;2024-01-30T11:55:52;100090.50;;;8.87;100.00
16431;BME280;8325;49.284;7.238;2024-01-30T12:00:04;100087.81;;;8.98;100.00
16431;BME280;8325;49.284;7.238;2024-01-30T12:04:21;100078.44;;;9.07;100.00
16431;BME280;8325;49.284;7.238;2024-01-30T12:08:33;100068.75;;;9.19;100.00
16431;BME280;8325;49.284;7.238;2024-01-30T12:12:51;100069.63;;;9.29;100.00
16431;BME280;8325;49.284;7.238;2024-01-30T12:17:03;100076.69;;;9.38;100.00
16431;BME280;8325;49.284;7.238;2024-01-30T12:21:18;100079.75;;;9.43;100.00
16431;BME280;8325;49.284;7.238;2024-01-30T12:25:30;100072.63;;;9.45;100.00
16431;BME280;8325;49.284;7.238;2024-01-30T12:29:42;100067.00;;;9.50;100.00
16431;BME280;8325;49.284;7.238;2024-01-30T12:33:54;100060.97;;;9.50;100.00
16431;BME280;8325;49.284;7.238;2024-01-30T12:38:06;100059.44;;;9.47;100.00
16431;BME280;8325;49.284;7.238;2024-01-30T12:42:19;100052.38;;;9.59;100.00
16431;BME280;8325;49.284;7.238;2024-01-30T12:46:34;100056.25;;;9.64;100.00
16431;BME280;8325;49.284;7.238;2024-01-30T12:50:45;100044.72;;;9.67;100.00
16431;BME280;8325;49.284;7.238;2024-01-30T12:54:57;100050.38;;;9.82;100.00
16431;BME280;8325;49.284;7.238;2024-01-30T12:59:10;100045.22;;;9.91;100.00
16431;BME280;8325;49.284;7.238;2024-01-30T13:03:21;100047.38;;;9.86;100.00
16431;BME280;8325;49.284;7.238;2024-01-30T13:07:33;100040.81;;;9.92;100.00
16431;BME280;8325;49.284;7.238;2024-01-30T13:11:45;100041.63;;;9.93;100.00
16431;BME280;8325;49.284;7.238;2024-01-30T13:15:57;100037.50;;;9.90;100.00
16431;BME280;8325;49.284;7.238;2024-01-30T13:20:09;100037.22;;;9.83;100.00
16431;BME280;8325;49.284;7.238;2024-01-30T13:24:23;100044.38;;;9.91;100.00
16431;BME280;8325;49.284;7.238;2024-01-30T13:28:34;100044.06;;;9.84;100.00
16431;BME280;8325;49.284;7.238;2024-01-30T13:32:46;100036.09;;;9.76;100.00
16431;BME280;8325;49.284;7.238;2024-01-30T13:36:58;100048.19;;;9.77;100.00
16431;BME280;8325;49.284;7.238;2024-01-30T13:41:09;100036.38;;;9.73;100.00
16431;BME280;8325;49.284;7.238;2024-01-30T13:45:21;100052.38;;;9.59;100.00
16431;BME280;8325;49.284;7.238;2024-01-30T13:49:34;100054.41;;;9.55;100.00
16431;BME280;8325;49.284;7.238;2024-01-30T13:53:46;100053.84;;;9.52;100.00
16431;BME280;8325;49.284;7.238;2024-01-30T13:57:58;100062.19;;;9.45;100.00
16431;BME280;8325;49.284;7.238;2024-01-30T14:02:09;100064.34;;;9.40;100.00
16431;BME280;8325;49.284;7.238;2024-01-30T14:06:22;100057.06;;;9.34;100.00
16431;BME280;8325;49.284;7.238;2024-01-30T14:10:33;100062.63;;;9.30;100.00
16431;BME280;8325;49.284;7.238;2024-01-30T14:14:45;100071.56;;;9.27;100.00
16431;BME280;8325;49.284;7.238;2024-01-30T14:18:57;100071.56;;;9.27;100.00
16431;BME280;8325;49.284;7.238;2024-01-30T14:23:09;100079.75;;;9.22;100.00
16431;BME280;8325;49.284;7.238;2024-01-30T14:27:20;100077.97;;;9.23;100.00
16431;BME280;8325;49.284;7.238;2024-01-30T14:31:32;100064.94;;;9.23;100.00
16431;BME280;8325;49.284;7.238;2024-01-30T14:35:43;100079.91;;;9.21;100.00
16431;BME280;8325;49.284;7.238;2024-01-30T14:39:55;100069.31;;;9.22;100.00
16431;BME280;8325;49.284;7.238;2024-01-30T14:44:10;100074.69;;;9.21;100.00
16431;BME280;8325;49.284;7.238;2024-01-30T14:48:21;100070.41;;;9.20;100.00
16431;BME280;8325;49.284;7.238;2024-01-30T14:52:34;100071.94;;;9.22;100.00
16431;BME280;8325;49.284;7.238;2024-01-30T14:56:46;100079.19;;;9.19;100.00
16431;BME280;8325;49.284;7.238;2024-01-30T15:00:58;100077.28;;;9.21;100.00
16431;BME280;8325;49.284;7.238;2024-01-30T15:05:10;100086.31;;;9.17;100.00
16431;BME280;8325;49.284;7.238;2024-01-30T15:09:22;100080.84;;;9.20;100.00
16431;BME280;8325;49.284;7.238;2024-01-30T15:13:37;100078.94;;;9.22;100.00
16431;BME280;8325;49.284;7.238;2024-01-30T15:17:49;100090.59;;;9.18;100.00
16431;BME280;8325;49.284;7.238;2024-01-30T15:22:00;100090.13;;;9.13;100.00
16431;BME280;8325;49.284;7.238;2024-01-30T15:26:12;100086.69;;;9.12;100.00
16431;BME280;8325;49.284;7.238;2024-01-30T15:30:24;100095.59;;;9.10;100.00
16431;BME280;8325;49.284;7.238;2024-01-30T15:34:35;100095.84;;;9.07;100.00
16431;BME280;8325;49.284;7.238;2024-01-30T15:38:47;100093.38;;;9.05;100.00
16431;BME280;8325;49.284;7.238;2024-01-30T15:42:58;100096.91;;;9.04;100.00
16431;BME280;8325;49.284;7.238;2024-01-30T15:47:10;100086.88;;;8.99;100.00
16431;BME280;8325;49.284;7.238;2024-01-30T15:51:22;100095.38;;;9.02;100.00
16431;BME280;8325;49.284;7.238;2024-01-30T15:55:35;100091.03;;;9.02;100.00
16431;BME280;8325;49.284;7.238;2024-01-30T15:59:47;100097.06;;;9.03;100.00
16431;BME280;8325;49.284;7.238;2024-01-30T16:03:59;100107.34;;;9.04;100.00
16431;BME280;8325;49.284;7.238;2024-01-30T16:08:11;100108.16;;;9.05;100.00
16431;BME280;8325;49.284;7.238;2024-01-30T16:12:22;100115.31;;;9.03;100.00
16431;BME280;8325;49.284;7.238;2024-01-30T16:16:34;100116.94;;;9.04;100.00
16431;BME280;8325;49.284;7.238;2024-01-30T16:20:46;100126.66;;;9.02;100.00
16431;BME280;8325;49.284;7.238;2024-01-30T16:24:58;100130.94;;;9.03;100.00
16431;BME280;8325;49.284;7.238;2024-01-30T16:29:09;100140.81;;;8.99;100.00
16431;BME280;8325;49.284;7.238;2024-01-30T16:33:21;100157.50;;;8.96;100.00
16431;BME280;8325;49.284;7.238;2024-01-30T16:37:32;100149.94;;;8.93;100.00
16431;BME280;8325;49.284;7.238;2024-01-30T16:41:44;100148.25;;;8.92;100.00
16431;BME280;8325;49.284;7.238;2024-01-30T16:45:56;100155.16;;;8.93;100.00
16431;BME280;8325;49.284;7.238;2024-01-30T16:50:07;100155.16;;;8.93;100.00
16431;BME280;8325;49.284;7.238;2024-01-30T16:54:19;100163.78;;;8.94;100.00
16431;BME280;8325;49.284;7.238;2024-01-30T16:58:31;100163.66;;;8.95;100.00
16431;BME280;8325;49.284;7.238;2024-01-30T17:02:42;100162.97;;;8.93;100.00
16431;BME280;8325;49.284;7.238;2024-01-30T17:06:55;100173.38;;;8.93;100.00
16431;BME280;8325;49.284;7.238;2024-01-30T17:11:09;100170.06;;;8.91;100.00
16431;BME280;8325;49.284;7.238;2024-01-30T17:15:20;100179.44;;;8.94;100.00
16431;BME280;8325;49.284;7.238;2024-01-30T17:19:32;100183.69;;;8.95;100.00
16431;BME280;8325;49.284;7.238;2024-01-30T17:23:44;100187.81;;;8.97;100.00
16431;BME280;8325;49.284;7.238;2024-01-30T17:27:55;100192.94;;;8.99;100.00
16431;BME280;8325;49.284;7.238;2024-01-30T17:32:09;100194.69;;;8.98;100.00
16431;BME280;8325;49.284;7.238;2024-01-30T17:36:21;100192.06;;;8.98;100.00
16431;BME280;8325;49.284;7.238;2024-01-30T17:40:33;100193.75;;;8.99;100.00
16431;BME280;8325;49.284;7.238;2024-01-30T17:44:45;100197.03;;;9.02;100.00
16431;BME280;8325;49.284;7.238;2024-01-30T17:48:56;100205.09;;;8.98;100.00
16431;BME280;8325;49.284;7.238;2024-01-30T17:53:08;100211.75;;;9.03;100.00
16431;BME280;8325;49.284;7.238;2024-01-30T17:57:20;100206.88;;;8.98;100.00
16431;BME280;8325;49.284;7.238;2024-01-30T18:01:32;100212.09;;;8.98;100.00
16431;BME280;8325;49.284;7.238;2024-01-30T18:05:44;100214.03;;;8.96;100.00
16431;BME280;8325;49.284;7.238;2024-01-30T18:09:56;100214.28;;;8.93;100.00
16431;BME280;8325;49.284;7.238;2024-01-30T18:14:07;100226.34;;;8.94;100.00
16431;BME280;8325;49.284;7.238;2024-01-30T18:18:19;100224.56;;;8.94;100.00
16431;BME280;8325;49.284;7.238;2024-01-30T18:22:31;100226.44;;;8.92;100.00
16431;BME280;8325;49.284;7.238;2024-01-30T18:26:43;100224.09;;;8.89;100.00
16431;BME280;8325;49.284;7.238;2024-01-30T18:30:54;100236.19;;;8.90;100.00
16431;BME280;8325;49.284;7.238;2024-01-30T18:35:08;100230.25;;;8.88;100.00
16431;BME280;8325;49.284;7.238;2024-01-30T18:39:19;100232.63;;;8.91;100.00
16431;BME280;8325;49.284;7.238;2024-01-30T18:43:31;100227.66;;;8.88;100.00
16431;BME280;8325;49.284;7.238;2024-01-30T18:47:43;100235.34;;;8.90;100.00
16431;BME280;8325;49.284;7.238;2024-01-30T18:51:55;100246.59;;;8.90;100.00
16431;BME280;8325;49.284;7.238;2024-01-30T18:56:07;100238.91;;;8.89;100.00
16431;BME280;8325;49.284;7.238;2024-01-30T19:00:19;100251.81;;;8.90;100.00
16431;BME280;8325;49.284;7.238;2024-01-30T19:04:31;100257.28;;;8.87;100.00
16431;BME280;8325;49.284;7.238;2024-01-30T19:08:43;100245.19;;;8.86;100.00
16431;BME280;8325;49.284;7.238;2024-01-30T19:12:54;100255.59;;;8.86;100.00
16431;BME280;8325;49.284;7.238;2024-01-30T19:17:06;100254.91;;;8.84;100.00
16431;BME280;8325;49.284;7.238;2024-01-30T19:21:17;100254.91;;;8.84;100.00
16431;BME280;8325;49.284;7.238;2024-01-30T19:25:29;100269.34;;;8.88;100.00
16431;BME280;8325;49.284;7.238;2024-01-30T19:29:41;100273.84;;;8.86;100.00
16431;BME280;8325;49.284;7.238;2024-01-30T19:33:53;100261.78;;;8.85;100.00
16431;BME280;8325;49.284;7.238;2024-01-30T19:38:05;100267.13;;;8.84;100.00
16431;BME280;8325;49.284;7.238;2024-01-30T19:42:18;100272.44;;;8.82;100.00
16431;BME280;8325;49.284;7.238;2024-01-30T19:46:30;100268.88;;;8.83;100.00
16431;BME280;8325;49.284;7.238;2024-01-30T19:50:41;100264.63;;;8.82;100.00
16431;BME280;8325;49.284;7.238;2024-01-30T19:54:53;100268.88;;;8.83;100.00
16431;BME280;8325;49.284;7.238;2024-01-30T19:59:05;100271.47;;;8.83;100.00
16431;BME280;8325;49.284;7.238;2024-01-30T20:03:17;100272.31;;;8.84;100.00
16431;BME280;8325;49.284;7.238;2024-01-30T20:07:29;100265.34;;;8.84;100.00
16431;BME280;8325;49.284;7.238;2024-01-30T20:11:41;100264.38;;;8.85;100.00
16431;BME280;8325;49.284;7.238;2024-01-30T20:15:53;100266.03;;;8.86;100.00
16431;BME280;8325;49.284;7.238;2024-01-30T20:20:08;100272.91;;;8.87;100.00
16431;BME280;8325;49.284;7.238;2024-01-30T20:24:20;100274.56;;;8.88;100.00
16431;BME280;8325;49.284;7.238;2024-01-30T20:28:31;100274.69;;;8.87;100.00
16431;BME280;8325;49.284;7.238;2024-01-30T20:32:44;100275.75;;;8.84;100.00
16431;BME280;8325;49.284;7.238;2024-01-30T20:36:55;100279.44;;;8.82;100.00
16431;BME280;8325;49.284;7.238;2024-01-30T20:41:07;100276.91;;;8.80;100.00
16431;BME280;8325;49.284;7.238;2024-01-30T20:45:22;100278.84;;;8.78;100.00
16431;BME280;8325;49.284;7.238;2024-01-30T20:49:34;100278.84;;;8.78;100.00
16431;BME280;8325;49.284;7.238;2024-01-30T20:53:45;100271.94;;;8.77;100.00
16431;BME280;8325;49.284;7.238;2024-01-30T20:57:57;100288.53;;;8.76;100.00
16431;BME280;8325;49.284;7.238;2024-01-30T21:02:09;100283.56;;;8.73;100.00
16431;BME280;8325;49.284;7.238;2024-01-30T21:06:21;100288.06;;;8.71;100.00
16431;BME280;8325;49.284;7.238;2024-01-30T21:10:32;100293.28;;;8.71;100.00
16431;BME280;8325;49.284;7.238;2024-01-30T21:14:44;100286.31;;;8.71;100.00
16431;BME280;8325;49.284;7.238;2024-01-30T21:18:56;100283.09;;;8.68;100.00
16431;BME280;8325;49.284;7.238;2024-01-30T21:23:08;100281.34;;;8.68;100.00
16431;BME280;8325;49.284;7.238;2024-01-30T21:27:20;100283.09;;;8.68;100.00
16431;BME280;8325;49.284;7.238;2024-01-30T21:31:31;100288.31;;;8.68;100.00
16431;BME280;8325;49.284;7.238;2024-01-30T21:35:43;100287.63;;;8.66;100.00
16431;BME280;8325;49.284;7.238;2024-01-30T21:39:55;100284.41;;;8.62;100.00
16431;BME280;8325;49.284;7.238;2024-01-30T21:44:07;100278.59;;;8.59;100.00
16431;BME280;8325;49.284;7.238;2024-01-30T21:48:18;100282.16;;;8.58;100.00
16431;BME280;8325;49.284;7.238;2024-01-30T21:52:30;100285.72;;;8.57;100.00
16431;BME280;8325;49.284;7.238;2024-01-30T21:56:42;100290.94;;;8.57;100.00
16431;BME280;8325;49.284;7.238;2024-01-30T22:00:53;100294.47;;;8.56;100.00
16431;BME280;8325;49.284;7.238;2024-01-30T22:05:05;100294.34;;;8.57;100.00
16431;BME280;8325;49.284;7.238;2024-01-30T22:09:17;100301.13;;;8.60;100.00
16431;BME280;8325;49.284;7.238;2024-01-30T22:13:29;100295.91;;;8.60;100.00
16431;BME280;8325;49.284;7.238;2024-01-30T22:17:41;100295.09;;;8.59;100.00
16431;BME280;8325;49.284;7.238;2024-01-30T22:21:52;100296.84;;;8.59;100.00
16431;BME280;8325;49.284;7.238;2024-01-30T22:26:04;100292.34;;;8.61;100.00
